Time;durP1;ratioP1;P1;durP2;ratioP2;P2;SDS_P1;SDS_P2;PMS_P1;PMS_P2;Temp;Humidity;BMP_temperature;BMP_pressure;BME280_temperature;BME280_humidity;BME280_pressure;Samples;Min_cycle;Max_cycle;Signal;HPM_P1;HPM_P2
2022/03/07 00:00:17;;;;;;;7.47;5.90;;;;;;;-3.80;100.00;102536.56;2107066;28;20028;-61
2022/03/07 00:01:18;;;;;;;5.38;4.78;;;;;;;-3.82;100.00;102537.31;2107134;28;20098;-61
2022/03/07 00:02:18;;;;;;;8.77;5.60;;;;;;;-3.86;100.00;102537.97;2107139;28;20028;-61
2022/03/07 00:03:19;;;;;;;11.43;6.97;;;;;;;-3.88;100.00;102537.91;2107154;28;20503;-62
2022/03/07 00:04:19;;;;;;;10.63;6.90;;;;;;;-3.90;100.00;102540.38;2107084;28;20020;-61
2022/03/07 00:05:20;;;;;;;9.68;6.05;;;;;;;-3.90;100.00;102534.44;2107310;28;20019;-62
2022/03/07 00:06:21;;;;;;;8.52;6.18;;;;;;;-3.91;100.00;102537.75;2107254;28;20465;-62
2022/03/07 00:07:21;;;;;;;8.70;6.50;;;;;;;-3.92;100.00;102544.56;2107089;28;20048;-61
2022/03/07 00:08:21;;;;;;;6.93;5.57;;;;;;;-3.93;100.00;102537.69;2107067;28;20023;-61
2022/03/07 00:09:21;;;;;;;7.50;6.30;;;;;;;-3.93;100.00;102537.69;2107004;28;20051;-61
2022/03/07 00:10:22;;;;;;;8.33;5.80;;;;;;;-3.95;100.00;102533.31;2107135;28;20095;-62
2022/03/07 00:11:22;;;;;;;7.43;5.93;;;;;;;-3.97;100.00;102533.25;2106997;28;20090;-62
2022/03/07 00:12:22;;;;;;;8.07;6.50;;;;;;;-3.98;100.00;102533.22;2106941;28;20747;-62
2022/03/07 00:13:23;;;;;;;7.67;6.10;;;;;;;-4.03;100.00;102533.84;2107070;28;20378;-62
2022/03/07 00:14:23;;;;;;;9.57;6.63;;;;;;;-4.01;100.00;102534.81;2107041;28;20093;-62
2022/03/07 00:15:23;;;;;;;10.80;6.43;;;;;;;-4.04;100.00;102526.16;2107028;28;20024;-63
2022/03/07 00:16:23;;;;;;;6.97;5.67;;;;;;;-4.06;100.00;102533.72;2107021;28;20077;-62
2022/03/07 00:17:24;;;;;;;7.80;6.13;;;;;;;-4.06;100.00;102530.28;2107022;28;20538;-62
2022/03/07 00:18:24;;;;;;;9.43;6.03;;;;;;;-4.08;100.00;102534.47;2106667;28;20060;-62
2022/03/07 00:19:24;;;;;;;7.43;6.17;;;;;;;-4.09;100.00;102532.69;2106974;28;20020;-62
2022/03/07 00:20:24;;;;;;;10.40;5.70;;;;;;;-4.06;100.00;102527.75;2107011;28;20506;-61
2022/03/07 00:21:25;;;;;;;9.00;5.77;;;;;;;-4.07;100.00;102531.09;2107015;28;20054;-61
2022/03/07 00:22:26;;;;;;;8.52;6.18;;;;;;;-4.07;100.00;102531.09;2107144;28;20389;-61
2022/03/07 00:23:26;;;;;;;9.10;6.20;;;;;;;-4.09;100.00;102527.59;2106256;28;20012;-62
2022/03/07 00:24:26;;;;;;;7.80;5.67;;;;;;;-4.09;100.00;102528.50;2106220;28;20024;-62
2022/03/07 00:25:26;;;;;;;8.83;5.80;;;;;;;-4.11;100.00;102529.22;2107108;28;20047;-62
2022/03/07 00:26:27;;;;;;;8.27;6.43;;;;;;;-4.12;100.00;102533.44;2106893;28;20107;-61
2022/03/07 00:27:27;;;;;;;11.87;7.03;;;;;;;-4.11;100.00;102531.78;2106855;28;20016;-63
2022/03/07 00:28:27;;;;;;;9.63;6.20;;;;;;;-4.13;100.00;102530.00;2106282;28;20059;-63
2022/03/07 00:29:27;;;;;;;8.43;6.77;;;;;;;-4.12;100.00;102523.25;2106242;28;20024;-62
2022/03/07 00:30:28;;;;;;;11.83;6.43;;;;;;;-4.13;100.00;102527.44;2106906;28;20566;-62
2022/03/07 00:31:28;;;;;;;7.93;5.93;;;;;;;-4.15;100.00;102529.06;2106857;28;20098;-62
2022/03/07 00:32:29;;;;;;;7.67;5.83;;;;;;;-4.14;100.00;102535.06;2106847;28;20034;-61
2022/03/07 00:33:29;;;;;;;8.02;6.03;;;;;;;-4.15;100.00;102533.28;2106267;28;20094;-62
2022/03/07 00:34:30;;;;;;;7.90;5.70;;;;;;;-4.17;100.00;102530.66;2106231;28;20023;-61
2022/03/07 00:35:30;;;;;;;8.93;5.87;;;;;;;-4.17;100.00;102540.00;2106147;28;20366;-65
2022/03/07 00:36:30;;;;;;;6.13;5.23;;;;;;;-4.17;100.00;102529.81;2106126;28;20466;-62
2022/03/07 00:37:32;;;;;;;8.00;6.03;;;;;;;-4.18;100.00;102534.03;2106113;28;20062;-62
2022/03/07 00:38:32;;;;;;;;;;;;;;;-4.17;100.00;102535.78;2106601;28;20503;-62
2022/03/07 00:39:32;;;;;;;9.98;6.95;;;;;;;-4.17;100.00;102528.13;2106860;28;19915;-61
2022/03/07 00:40:33;;;;;;;8.00;5.83;;;;;;;-4.19;100.00;102542.50;2106746;28;20012;-61
2022/03/07 00:41:33;;;;;;;9.60;6.78;;;;;;;-4.20;100.00;102538.19;2106899;28;20164;-62
2022/03/07 00:42:34;;;;;;;8.97;5.40;;;;;;;-4.20;100.00;102535.66;2106798;28;20016;-62
2022/03/07 00:43:34;;;;;;;7.93;5.72;;;;;;;-4.23;100.00;102543.16;2106860;28;20020;-61
2022/03/07 00:44:35;;;;;;;8.00;6.05;;;;;;;-4.23;100.00;102535.50;2106854;28;20024;-62
2022/03/07 00:45:35;;;;;;;10.10;5.80;;;;;;;-4.20;100.00;102535.66;2106755;28;20417;-61
2022/03/07 00:46:36;;;;;;;8.23;5.65;;;;;;;-4.21;100.00;102538.97;2106112;28;20020;-61
2022/03/07 00:47:36;;;;;;;10.13;6.00;;;;;;;-4.25;100.00;102539.66;2106147;28;20027;-61
2022/03/07 00:48:37;;;;;;;9.40;5.97;;;;;;;-4.29;100.00;102540.31;2106500;28;20503;-62
2022/03/07 00:49:37;;;;;;;9.27;6.20;;;;;;;-4.28;100.00;102548.03;2106807;28;20066;-61
2022/03/07 00:50:42;;;;;;;8.60;6.30;;;;;;;-4.27;100.00;102534.47;2106734;28;20080;-62
2022/03/07 00:51:42;;;;;;;8.82;6.50;;;;;;;-4.25;100.00;102532.00;2106680;28;20099;-61
2022/03/07 00:52:43;;;;;;;8.13;6.10;;;;;;;-4.25;100.00;102536.25;2106811;28;20032;-61
2022/03/07 00:53:43;;;;;;;9.13;5.88;;;;;;;-4.27;100.00;102536.16;2106754;28;20035;-61
2022/03/07 00:54:44;;;;;;;8.63;6.03;;;;;;;-4.28;100.00;102544.59;2106007;28;20042;-61
2022/03/07 00:55:44;;;;;;;9.33;6.23;;;;;;;-4.27;100.00;102538.72;2097678;28;20123;-63
2022/03/07 00:56:45;;;;;;;8.10;6.78;;;;;;;-4.30;100.00;102534.34;2106100;28;20028;-64
2022/03/07 00:57:45;;;;;;;8.23;6.50;;;;;;;-4.30;100.00;102533.47;2106061;28;20020;-61
2022/03/07 00:58:45;;;;;;;8.97;5.93;;;;;;;-4.31;100.00;102540.22;2106127;28;20115;-62
2022/03/07 00:59:46;;;;;;;8.93;6.77;;;;;;;-4.30;100.00;102541.13;2106708;28;20028;-62
2022/03/07 01:00:46;;;;;;;10.67;6.47;;;;;;;-4.30;100.00;102538.56;2106592;28;20460;-62
2022/03/07 01:01:46;;;;;;;7.28;6.30;;;;;;;-4.30;100.00;102554.75;2106731;28;20024;-62
2022/03/07 01:02:47;;;;;;;8.93;6.20;;;;;;;-4.30;100.00;102547.09;2106658;28;20143;-62
2022/03/07 01:03:47;;;;;;;10.00;6.60;;;;;;;-4.29;100.00;102550.50;2106637;28;20389;-62
2022/03/07 01:04:47;;;;;;;11.87;7.67;;;;;;;-4.31;100.00;102536.81;2106035;28;20020;-60
2022/03/07 01:05:48;;;;;;;9.47;7.30;;;;;;;-4.32;100.00;102551.25;2106082;28;20027;-62
2022/03/07 01:06:48;;;;;;;9.03;6.63;;;;;;;-4.32;100.00;102545.25;2106631;28;20043;-62
2022/03/07 01:07:48;;;;;;;9.13;6.30;;;;;;;-4.31;100.00;102547.88;2106612;28;20044;-62
2022/03/07 01:08:49;;;;;;;7.93;6.80;;;;;;;-4.30;100.00;102553.88;2106686;28;20048;-61
2022/03/07 01:09:49;;;;;;;9.50;6.53;;;;;;;-4.32;100.00;102551.25;2106650;28;20495;-62
2022/03/07 01:10:49;;;;;;;11.70;6.70;;;;;;;-4.33;100.00;102548.63;2106564;28;20735;-62
2022/03/07 01:11:50;;;;;;;8.63;6.57;;;;;;;-4.34;100.00;102551.97;2106665;28;20035;-62
2022/03/07 01:12:50;;;;;;;7.13;4.97;;;;;;;-4.36;100.00;102553.56;2106640;28;20027;-62
2022/03/07 01:13:51;;;;;;;12.03;6.63;;;;;;;-4.39;100.00;102556.84;2106505;28;20034;-62
2022/03/07 01:14:51;;;;;;;8.40;6.17;;;;;;;-4.38;100.00;102550.09;2106616;28;20670;-61
2022/03/07 01:15:51;;;;;;;9.10;6.03;;;;;;;-4.35;100.00;102557.88;2106573;28;20729;-62
2022/03/07 01:16:51;;;;;;;7.43;5.77;;;;;;;-4.35;100.00;102550.22;2106578;28;20103;-62
2022/03/07 01:17:54;;;;;;;8.53;6.43;;;;;;;-4.36;100.00;102548.47;2106561;28;20024;-62
2022/03/07 01:18:54;;;;;;;8.68;6.47;;;;;;;-4.37;100.00;102551.81;2106012;28;20035;-62
2022/03/07 01:19:55;;;;;;;10.50;6.57;;;;;;;-4.38;100.00;102555.19;2105935;28;20107;-62
2022/03/07 01:20:55;;;;;;;9.20;6.30;;;;;;;-4.38;100.00;102560.28;2106581;28;20023;-61
2022/03/07 01:21:55;;;;;;;10.03;6.97;;;;;;;-4.41;100.00;102550.81;2105875;28;20123;-61
2022/03/07 01:22:55;;;;;;;9.40;6.37;;;;;;;-4.42;100.00;102555.03;2105987;28;20115;-62
2022/03/07 01:23:56;;;;;;;6.70;5.73;;;;;;;-4.44;100.00;102550.66;2106578;28;20043;-62
2022/03/07 01:24:56;;;;;;;7.53;5.63;;;;;;;-4.46;100.00;102557.34;2106553;28;20051;-62
2022/03/07 01:25:57;;;;;;;8.40;5.53;;;;;;;-4.45;100.00;102554.88;2106491;28;20103;-61
2022/03/07 01:26:57;;;;;;;7.43;6.35;;;;;;;-4.44;100.00;102551.56;2106547;28;20088;-62
2022/03/07 01:27:57;;;;;;;9.10;5.97;;;;;;;-4.46;100.00;102553.13;2106546;28;20024;-61
2022/03/07 01:28:58;;;;;;;7.67;6.57;;;;;;;-4.48;100.00;102548.78;2106588;28;20035;-62
2022/03/07 01:29:58;;;;;;;9.97;5.87;;;;;;;-4.51;100.00;102546.97;2106534;28;20530;-62
2022/03/07 01:30:59;;;;;;;8.87;7.10;;;;;;;-4.53;100.00;102553.63;2106931;28;20403;-62
2022/03/07 01:31:59;;;;;;;9.93;6.40;;;;;;;-4.54;100.00;102557.00;2107637;28;20360;-62
2022/03/07 01:32:59;;;;;;;8.50;5.77;;;;;;;-4.53;100.00;102561.28;2108375;28;20722;-62
2022/03/07 01:33:59;;;;;;;10.10;6.30;;;;;;;-4.55;100.00;102547.63;2108201;28;20020;-61
2022/03/07 01:35:00;;;;;;;11.57;6.77;;;;;;;-4.57;100.00;102546.66;2108219;28;20027;-61
2022/03/07 01:36:00;;;;;;;9.77;6.57;;;;;;;-4.56;100.00;102545.84;2108251;28;20019;-62
2022/03/07 01:37:01;;;;;;;11.13;7.03;;;;;;;-4.59;100.00;102543.19;2108337;28;20028;-62
2022/03/07 01:38:01;;;;;;;8.90;6.37;;;;;;;-4.59;100.00;102550.81;2108242;28;20483;-62
2022/03/07 01:39:01;;;;;;;10.67;7.27;;;;;;;-4.59;100.00;102546.56;2108409;28;20374;-61
2022/03/07 01:40:03;;;;;;;10.27;6.90;;;;;;;-4.59;100.00;102543.19;2108222;28;20102;-62
2022/03/07 01:41:03;;;;;;;9.77;6.70;;;;;;;-4.60;100.00;102538.84;2108379;28;20388;-62
2022/03/07 01:42:04;;;;;;;11.93;7.30;;;;;;;-4.61;100.00;102542.22;2108211;28;20469;-61
2022/03/07 01:43:06;;;;;;;9.57;6.93;;;;;;;-4.61;100.00;102543.09;2107499;28;20036;-61
2022/03/07 01:44:17;;;;;;;11.05;6.07;;;;;;;-4.59;100.00;102543.19;2107594;28;20028;-62
2022/03/07 01:45:19;;;;;;;8.38;6.82;;;;;;;-4.63;100.00;102538.72;2108274;28;20131;-62
2022/03/07 01:46:19;;;;;;;9.85;6.43;;;;;;;-4.66;100.00;102540.31;2108133;28;20361;-62
2022/03/07 01:47:19;;;;;;;8.63;6.40;;;;;;;-4.66;100.00;102540.31;2107528;28;20027;-61
2022/03/07 01:48:20;;;;;;;10.03;6.37;;;;;;;-4.68;100.00;102539.34;2107438;28;20534;-62
2022/03/07 01:49:20;;;;;;;9.20;6.27;;;;;;;-4.69;100.00;102540.16;2108201;28;20028;-61
2022/03/07 01:50:21;;;;;;;7.57;6.10;;;;;;;-4.71;100.00;102534.13;2108071;28;20020;-62
2022/03/07 01:51:22;;;;;;;9.67;6.60;;;;;;;-4.70;100.00;102535.00;2108104;28;20070;-62
2022/03/07 01:52:22;;;;;;;9.75;6.47;;;;;;;-4.71;100.00;102536.69;2108157;28;20028;-62
2022/03/07 01:53:22;;;;;;;8.83;6.00;;;;;;;-4.71;100.00;102538.34;2108139;28;20048;-61
2022/03/07 01:54:23;;;;;;;8.87;6.23;;;;;;;-4.72;100.00;102542.56;2108092;28;20020;-63
2022/03/07 01:55:24;;;;;;;8.05;6.18;;;;;;;-4.72;100.00;102534.91;2108073;28;20016;-63
2022/03/07 01:56:24;;;;;;;11.30;7.17;;;;;;;-4.71;100.00;102541.78;2108071;28;20091;-62
2022/03/07 01:57:25;;;;;;;9.93;7.13;;;;;;;-4.72;100.00;102540.00;2108164;28;20081;-61
2022/03/07 01:58:25;;;;;;;9.48;6.20;;;;;;;-4.70;100.00;102533.31;2108082;28;20101;-62
2022/03/07 01:59:28;;;;;;;11.00;6.90;;;;;;;-4.72;100.00;102537.47;2108073;28;20044;-62
2022/03/07 02:00:29;;;;;;;10.63;7.43;;;;;;;-4.72;100.00;102534.91;2108025;28;20366;-62
2022/03/07 02:01:30;;;;;;;8.52;6.22;;;;;;;-4.73;100.00;102533.16;2108168;28;20027;-62
2022/03/07 02:02:30;;;;;;;8.15;6.60;;;;;;;-4.75;100.00;102534.78;2107863;28;20024;-62
2022/03/07 02:03:31;;;;;;;11.83;6.23;;;;;;;-4.77;100.00;102533.81;2108015;28;20030;-62
2022/03/07 02:04:31;;;;;;;7.68;5.70;;;;;;;-4.78;100.00;102530.38;2108020;28;20028;-62
2022/03/07 02:05:32;;;;;;;11.30;6.73;;;;;;;-4.75;100.00;102523.72;2107306;28;20106;-61
2022/03/07 02:06:33;;;;;;;6.97;6.00;;;;;;;-4.72;100.00;102534.91;2098964;28;20025;-62
2022/03/07 02:07:33;;;;;;;8.23;5.85;;;;;;;-4.69;100.00;102529.97;2107419;28;20381;-62
2022/03/07 02:08:34;;;;;;;8.97;6.20;;;;;;;-4.67;100.00;102532.59;2107980;28;20037;-61
2022/03/07 02:09:34;;;;;;;7.70;6.33;;;;;;;-4.67;100.00;102522.41;2107257;28;20020;-63
2022/03/07 02:10:35;;;;;;;8.50;6.50;;;;;;;-4.67;100.00;102530.94;2107434;28;20067;-62
2022/03/07 02:11:37;;;;;;;9.40;5.60;;;;;;;-4.69;100.00;102529.97;2107883;28;20501;-62
2022/03/07 02:12:38;;;;;;;11.48;6.78;;;;;;;-4.71;100.00;102526.50;2107997;28;20027;-61
2022/03/07 02:13:39;;;;;;;8.40;6.78;;;;;;;-4.72;100.00;102529.81;2107915;28;20020;-63
2022/03/07 02:14:41;;;;;;;11.60;6.47;;;;;;;-4.75;100.00;102524.59;2107873;28;20060;-61
2022/03/07 02:15:42;;;;;;;9.32;6.60;;;;;;;-4.75;100.00;102527.16;2107949;28;20032;-62
2022/03/07 02:16:44;;;;;;;9.85;7.15;;;;;;;-4.74;100.00;102523.78;2107268;28;20024;-62
2022/03/07 02:17:48;;;;;;;7.15;5.72;;;;;;;-4.73;100.00;102527.22;2107313;28;20493;-63
2022/03/07 02:18:48;;;;;;;9.57;5.75;;;;;;;-4.71;100.00;102526.50;2107970;28;20357;-62
2022/03/07 02:19:49;;;;;;;10.77;7.53;;;;;;;-4.70;100.00;102527.34;2107936;28;20043;-62
2022/03/07 02:20:59;;;;;;;9.83;6.07;;;;;;;-4.63;100.00;102528.53;2107931;28;20055;-61
2022/03/07 02:22:01;;;;;;;7.63;5.80;;;;;;;-4.55;100.00;102527.22;2107911;28;20393;-62
2022/03/07 02:23:01;;;;;;;7.68;6.32;;;;;;;-4.49;100.00;102527.50;2107870;28;20094;-61
2022/03/07 02:24:02;;;;;;;12.07;7.00;;;;;;;-4.46;100.00;102527.66;2107888;28;20028;-62
2022/03/07 02:25:03;;;;;;;7.80;6.38;;;;;;;-4.41;100.00;102520.22;2107909;28;20031;-63
2022/03/07 02:26:11;;;;;;;9.40;6.30;;;;;;;-4.36;100.00;102518.75;2107106;28;20020;-61
2022/03/07 02:27:12;;;;;;;9.45;6.53;;;;;;;-4.34;100.00;102517.16;2107328;28;20103;-62
2022/03/07 02:28:13;;;;;;;11.35;6.47;;;;;;;-4.34;100.00;102512.06;2107916;28;20023;-61
2022/03/07 02:29:13;;;;;;;7.00;5.18;;;;;;;-4.33;100.00;102513.81;2107874;28;20020;-62
2022/03/07 02:30:13;;;;;;;8.13;5.43;;;;;;;-4.28;100.00;102514.00;2107138;28;20027;-61
2022/03/07 02:31:19;;;;;;;10.17;6.50;;;;;;;-4.20;100.00;102514.38;2107212;28;20031;-63
2022/03/07 02:32:20;;;;;;;7.07;6.03;;;;;;;-4.17;100.00;102514.50;2107811;28;20095;-62
2022/03/07 02:33:21;;;;;;;9.05;6.55;;;;;;;-4.14;100.00;102510.41;2107707;28;20020;-62
2022/03/07 02:34:21;;;;;;;11.53;6.67;;;;;;;-4.15;100.00;102512.88;2107813;28;20031;-62
2022/03/07 02:35:22;;;;;;;8.93;6.68;;;;;;;-4.15;100.00;102513.78;2107795;28;20028;-62
2022/03/07 02:36:22;;;;;;;12.80;7.30;;;;;;;-4.17;100.00;102510.28;2107836;28;20012;-61
2022/03/07 02:37:23;;;;;;;10.60;6.88;;;;;;;-4.20;100.00;102510.16;2107051;28;20031;-62
2022/03/07 02:38:23;;;;;;;12.77;7.93;;;;;;;-4.24;100.00;102508.28;2107109;28;20415;-62
2022/03/07 02:39:23;;;;;;;8.50;6.70;;;;;;;-4.24;100.00;102504.84;2107007;28;20527;-62
2022/03/07 02:40:24;;;;;;;9.87;6.80;;;;;;;-4.30;100.00;102510.53;2107170;28;20388;-61
2022/03/07 02:41:24;;;;;;;8.75;6.00;;;;;;;-4.33;100.00;102512.91;2107757;28;20039;-62
2022/03/07 02:42:24;;;;;;;8.73;6.80;;;;;;;-4.35;100.00;102512.00;2107766;28;20047;-62
2022/03/07 02:43:25;;;;;;;11.97;6.93;;;;;;;-4.38;100.00;102506.75;2107066;28;20124;-62
2022/03/07 02:44:25;;;;;;;10.83;7.03;;;;;;;-4.41;100.00;102513.44;2107195;28;20024;-61
2022/03/07 02:45:25;;;;;;;11.17;7.33;;;;;;;-4.44;100.00;102513.31;2107692;28;20119;-62
2022/03/07 02:46:25;;;;;;;9.10;6.30;;;;;;;-4.48;100.00;102519.03;2107054;28;20020;-62
2022/03/07 02:47:26;;;;;;;9.60;7.77;;;;;;;-4.51;100.00;102518.91;2107041;28;20020;-62
2022/03/07 02:48:27;;;;;;;10.10;7.05;;;;;;;-4.50;100.00;102525.75;2106876;28;20039;-62
2022/03/07 02:49:27;;;;;;;9.95;7.18;;;;;;;-4.52;100.00;102522.25;2107706;28;20020;-62
2022/03/07 02:50:27;;;;;;;9.73;6.33;;;;;;;-4.54;100.00;102521.31;2107613;28;20299;-64
2022/03/07 02:51:28;;;;;;;7.83;6.33;;;;;;;-4.56;100.00;102521.25;2107574;28;20016;-63
2022/03/07 02:52:28;;;;;;;9.23;6.20;;;;;;;-4.56;100.00;102525.44;2107748;28;20058;-63
2022/03/07 02:53:29;;;;;;;9.00;6.87;;;;;;;-4.57;100.00;102526.25;2107659;28;20032;-62
2022/03/07 02:54:29;;;;;;;8.10;6.07;;;;;;;-4.57;100.00;102521.16;2106955;28;20389;-62
2022/03/07 02:55:31;;;;;;;10.00;6.97;;;;;;;-4.55;100.00;102532.31;2107087;28;20113;-62
2022/03/07 02:56:32;;;;;;;8.27;6.15;;;;;;;-4.58;100.00;102521.97;2107579;28;20099;-62
2022/03/07 02:57:32;;;;;;;11.07;6.57;;;;;;;-4.62;100.00;102530.28;2107589;28;20016;-62
2022/03/07 02:58:32;;;;;;;10.80;6.90;;;;;;;-4.63;100.00;102523.44;2107570;28;20020;-62
2022/03/07 02:59:32;;;;;;;11.97;6.57;;;;;;;-4.63;100.00;102519.19;2107616;28;20100;-62
2022/03/07 03:00:33;;;;;;;8.83;6.53;;;;;;;-4.61;100.00;102519.28;2107586;28;20024;-62
2022/03/07 03:01:33;;;;;;;8.20;6.43;;;;;;;-4.61;100.00;102517.63;2107618;28;20491;-63
2022/03/07 03:02:33;;;;;;;8.70;6.17;;;;;;;-4.65;100.00;102521.66;2107540;28;20031;-61
2022/03/07 03:03:33;;;;;;;8.87;6.63;;;;;;;-4.67;100.00;102517.31;2107518;28;20020;-60
2022/03/07 03:04:34;;;;;;;10.00;6.43;;;;;;;-4.70;100.00;102518.03;2107599;28;20012;-63
2022/03/07 03:05:35;;;;;;;11.45;6.05;;;;;;;-4.73;100.00;102517.88;2107533;28;20022;-61
2022/03/07 03:06:36;;;;;;;7.60;5.67;;;;;;;-4.74;100.00;102516.16;2107559;28;20024;-62
2022/03/07 03:07:36;;;;;;;9.93;6.43;;;;;;;-4.73;100.00;102512.78;2107595;28;20047;-62
2022/03/07 03:08:36;;;;;;;13.33;7.80;;;;;;;-4.75;100.00;102521.16;2107556;28;20013;-62
2022/03/07 03:09:37;;;;;;;9.27;6.50;;;;;;;-4.76;100.00;102517.72;2107585;28;20500;-61
2022/03/07 03:10:37;;;;;;;8.87;6.43;;;;;;;-4.77;100.00;102513.44;2107492;28;20322;-62
2022/03/07 03:11:37;;;;;;;11.43;7.03;;;;;;;-4.76;100.00;102507.53;2106739;28;20024;-63
2022/03/07 03:12:38;;;;;;;10.23;6.67;;;;;;;-4.71;100.00;102518.84;2106913;28;20036;-62
2022/03/07 03:13:38;;;;;;;7.97;6.47;;;;;;;-4.69;100.00;102519.78;2107518;28;20439;-62
2022/03/07 03:14:39;;;;;;;9.07;7.30;;;;;;;-4.70;100.00;102512.06;2107450;28;20099;-60
2022/03/07 03:15:40;;;;;;;9.10;7.13;;;;;;;-4.72;100.00;102521.31;2107453;28;20055;-61
2022/03/07 03:16:40;;;;;;;11.80;6.53;;;;;;;-4.74;100.00;102516.16;2107429;28;20020;-62
2022/03/07 03:17:41;;;;;;;7.97;6.07;;;;;;;-4.77;100.00;102513.44;2107428;28;20120;-62
2022/03/07 03:18:41;;;;;;;;;;;;;;;-4.75;100.00;102519.50;2107218;28;20027;-61
2022/03/07 03:19:42;;;;;;;13.40;6.88;;;;;;;-4.76;100.00;102517.72;2106939;28;19928;-62
2022/03/07 03:20:44;;;;;;;11.33;7.30;;;;;;;-4.74;100.00;102518.69;2107616;28;20331;-62
2022/03/07 03:21:44;;;;;;;9.45;6.63;;;;;;;-4.73;100.00;102512.78;2107340;28;20111;-62
2022/03/07 03:22:45;;;;;;;8.43;6.87;;;;;;;-4.75;100.00;102514.41;2107420;28;20020;-62
2022/03/07 03:23:46;;;;;;;8.05;5.70;;;;;;;-4.76;100.00;102517.72;2107416;28;20020;-63
2022/03/07 03:24:47;;;;;;;10.13;6.95;;;;;;;-4.75;100.00;102514.41;2106786;28;20024;-62
2022/03/07 03:25:48;;;;;;;8.43;6.65;;;;;;;-4.72;100.00;102519.63;2106722;28;20024;-62
2022/03/07 03:26:48;;;;;;;8.40;6.45;;;;;;;-4.70;100.00;102517.16;2107314;28;20058;-62
2022/03/07 03:27:48;;;;;;;9.23;6.63;;;;;;;-4.75;100.00;102524.59;2107391;28;20476;-63
2022/03/07 03:28:49;;;;;;;9.10;6.57;;;;;;;-4.76;100.00;102522.81;2107393;28;20508;-62
2022/03/07 03:29:49;;;;;;;8.53;6.33;;;;;;;-4.78;100.00;102524.44;2106691;28;20094;-62
2022/03/07 03:30:51;;;;;;;10.10;7.37;;;;;;;-4.80;100.00;102526.03;2106737;28;20061;-61
2022/03/07 03:31:52;;;;;;;10.05;6.80;;;;;;;-4.83;100.00;102525.91;2107324;28;20077;-62
2022/03/07 03:32:52;;;;;;;9.30;6.53;;;;;;;-4.81;100.00;102519.19;2107359;28;20069;-62
2022/03/07 03:33:53;;;;;;;10.67;7.63;;;;;;;-4.80;100.00;102528.56;2107350;28;20485;-63
2022/03/07 03:34:55;;;;;;;16.73;7.88;;;;;;;-4.84;100.00;102514.81;2107322;28;20073;-62
2022/03/07 03:35:55;;;;;;;8.35;6.55;;;;;;;-4.84;100.00;102519.94;2107264;28;20096;-62
2022/03/07 03:36:56;;;;;;;10.57;7.40;;;;;;;-4.81;100.00;102519.19;2107328;28;20081;-61
2022/03/07 03:37:57;;;;;;;10.32;6.78;;;;;;;-4.83;100.00;102525.91;2106619;28;20525;-62
2022/03/07 03:38:57;;;;;;;8.73;6.05;;;;;;;-4.84;100.00;102524.13;2106587;28;20473;-62
2022/03/07 03:39:57;;;;;;;7.67;4.63;;;;;;;-4.82;100.00;102517.44;2107331;28;20119;-62
2022/03/07 03:40:57;;;;;;;9.33;6.27;;;;;;;-4.81;100.00;102520.06;2107261;28;20031;-62
2022/03/07 03:41:58;;;;;;;9.77;7.23;;;;;;;-4.85;100.00;102532.59;2107229;28;20024;-62
2022/03/07 03:42:58;;;;;;;10.27;7.07;;;;;;;-4.91;100.00;102528.94;2107270;28;20393;-61
2022/03/07 03:43:58;;;;;;;7.90;6.10;;;;;;;-4.92;100.00;102532.28;2107225;28;20099;-61
2022/03/07 03:44:59;;;;;;;9.43;6.83;;;;;;;-4.94;100.00;102523.69;2107210;28;20121;-62
2022/03/07 03:45:59;;;;;;;10.07;7.23;;;;;;;-4.95;100.00;102527.03;2107214;28;20434;-61
2022/03/07 03:46:59;;;;;;;10.07;6.47;;;;;;;-4.98;100.00;102532.00;2107249;28;20051;-63
2022/03/07 03:48:00;;;;;;;10.67;6.70;;;;;;;-4.98;100.00;102534.53;2107187;28;22084;-62
2022/03/07 03:49:01;;;;;;;9.07;6.88;;;;;;;-4.98;100.00;102526.88;2107223;28;20119;-62
2022/03/07 03:50:04;;;;;;;8.73;6.93;;;;;;;-4.99;100.00;102535.34;2107253;28;20393;-62
2022/03/07 03:51:04;;;;;;;7.93;6.55;;;;;;;-5.00;100.00;102532.72;2107038;28;20372;-62
2022/03/07 03:52:05;;;;;;;8.57;6.80;;;;;;;-5.04;100.00;102526.56;2107123;28;20032;-62
2022/03/07 03:53:05;;;;;;;10.57;6.72;;;;;;;-5.04;100.00;102529.13;2106925;28;20496;-62
2022/03/07 03:54:05;;;;;;;12.93;7.93;;;;;;;-5.07;100.00;102518.78;2106930;28;20397;-61
2022/03/07 03:55:07;;;;;;;9.67;7.07;;;;;;;-5.09;100.00;102525.47;2107179;28;20507;-62
2022/03/07 03:56:07;;;;;;;9.43;6.75;;;;;;;-5.09;100.00;102528.91;2107123;28;20405;-63
2022/03/07 03:57:08;;;;;;;9.80;7.43;;;;;;;-5.11;100.00;102521.97;2107139;28;20023;-62
2022/03/07 03:58:08;;;;;;;10.20;7.00;;;;;;;-5.11;100.00;102527.94;2107187;28;20036;-62
2022/03/07 03:59:08;;;;;;;10.60;7.17;;;;;;;-5.12;100.00;102528.75;2107162;28;20037;-62
2022/03/07 04:00:12;;;;;;;10.00;7.53;;;;;;;-5.11;100.00;102527.06;2107081;28;20020;-61
2022/03/07 04:01:12;;;;;;;10.93;6.70;;;;;;;-5.13;100.00;102531.22;2106355;28;20024;-62
2022/03/07 04:02:12;;;;;;;12.07;8.73;;;;;;;-5.13;100.00;102536.31;2098081;28;20028;-63
2022/03/07 04:03:12;;;;;;;13.73;7.10;;;;;;;-5.14;100.00;102529.47;2106397;28;20412;-62
2022/03/07 04:04:14;;;;;;;10.13;7.03;;;;;;;-5.14;100.00;102530.34;2107100;28;20020;-62
2022/03/07 04:05:15;;;;;;;;;;;;;;;-5.13;100.00;102521.94;2107510;28;20020;-62
2022/03/07 04:06:15;;;;;;;9.73;6.63;;;;;;;-5.12;100.00;102527.88;2107029;28;19912;-62
2022/03/07 04:07:15;;;;;;;9.77;6.70;;;;;;;-5.10;100.00;102531.38;2106383;28;20439;-62
2022/03/07 04:08:16;;;;;;;8.60;6.60;;;;;;;-5.11;100.00;102527.94;2106441;28;20028;-63
2022/03/07 04:09:17;;;;;;;10.83;7.80;;;;;;;-5.10;100.00;102533.94;2107076;28;20492;-62
2022/03/07 04:10:18;;;;;;;10.30;7.65;;;;;;;-5.10;100.00;102526.28;2106992;28;20053;-62
2022/03/07 04:11:18;;;;;;;8.93;7.43;;;;;;;-5.11;100.00;102534.69;2106929;28;20016;-62
2022/03/07 04:12:18;;;;;;;11.07;8.17;;;;;;;-5.12;100.00;102527.88;2106372;28;20493;-63
2022/03/07 04:13:18;;;;;;;9.80;7.13;;;;;;;-5.12;100.00;102531.31;2106440;28;20024;-62
2022/03/07 04:14:19;;;;;;;10.30;7.60;;;;;;;-5.14;100.00;102537.13;2106997;28;20027;-62
2022/03/07 04:15:19;;;;;;;10.17;7.70;;;;;;;-5.13;100.00;102533.78;2106914;28;20024;-62
2022/03/07 04:16:20;;;;;;;12.10;8.70;;;;;;;-5.15;100.00;102535.34;2106970;28;20016;-62
2022/03/07 04:17:20;;;;;;;12.75;8.32;;;;;;;-5.12;100.00;102538.06;2106996;28;20008;-62
2022/03/07 04:18:20;;;;;;;9.67;7.67;;;;;;;-5.12;100.00;102533.84;2106959;28;20019;-61
2022/03/07 04:19:21;;;;;;;11.77;8.17;;;;;;;-5.09;100.00;102535.66;2106987;28;20051;-62
2022/03/07 04:20:21;;;;;;;10.75;7.18;;;;;;;-5.12;100.00;102533.84;2107009;28;20024;-62
2022/03/07 04:21:22;;;;;;;10.17;7.47;;;;;;;-5.10;100.00;102526.28;2106924;28;20016;-62
2022/03/07 04:22:22;;;;;;;12.05;7.68;;;;;;;-5.10;100.00;102527.16;2106950;28;20095;-61
2022/03/07 04:23:24;;;;;;;10.23;7.47;;;;;;;-5.09;100.00;102528.91;2106935;28;20015;-62
2022/03/07 04:24:24;;;;;;;10.70;7.47;;;;;;;-5.06;100.00;102523.94;2106917;28;20027;-62
2022/03/07 04:25:24;;;;;;;11.60;7.73;;;;;;;-5.01;100.00;102530.94;2106287;28;20504;-61
2022/03/07 04:26:25;;;;;;;10.43;7.37;;;;;;;-5.00;100.00;102525.94;2106358;28;20024;-62
2022/03/07 04:27:25;;;;;;;13.23;8.17;;;;;;;-5.00;100.00;102528.47;2106852;28;20054;-62
2022/03/07 04:28:25;;;;;;;10.13;7.63;;;;;;;-5.01;100.00;102530.94;2106906;28;20806;-62
2022/03/07 04:29:25;;;;;;;9.73;7.80;;;;;;;-5.05;100.00;102532.47;2106921;28;20173;-62
2022/03/07 04:30:26;;;;;;;12.07;8.33;;;;;;;-5.07;100.00;102526.41;2106958;28;20027;-61
2022/03/07 04:31:27;;;;;;;10.55;6.85;;;;;;;-5.10;100.00;102527.16;2106779;28;20464;-62
2022/03/07 04:32:27;;;;;;;9.48;7.43;;;;;;;-5.12;100.00;102523.66;2106839;28;20043;-62
2022/03/07 04:33:27;;;;;;;10.83;7.47;;;;;;;-5.11;100.00;102520.31;2106848;28;20048;-61
2022/03/07 04:34:28;;;;;;;11.47;7.93;;;;;;;-5.07;100.00;102521.31;2106872;28;20024;-62
2022/03/07 04:35:28;;;;;;;9.97;8.27;;;;;;;-5.05;100.00;102519.75;2106795;28;20027;-62
2022/03/07 04:36:28;;;;;;;12.50;7.37;;;;;;;-5.04;100.00;102521.47;2106796;28;20282;-61
2022/03/07 04:37:28;;;;;;;18.07;8.83;;;;;;;-5.03;100.00;102518.16;2106138;28;20024;-62